sensor_id;sensor_type;location;lat;lon;timestamp;P1;durP1;ratioP1;P2;durP2;ratioP2
41263;SDS011;26998;48.714;9.414;2022-12-07T00:01:23;11.15;;;8.52;;
41263;SDS011;26998;48.714;9.414;2022-12-07T00:03:52;12.32;;;8.13;;
41263;SDS011;26998;48.714;9.414;2022-12-07T00:06:20;9.70;;;7.53;;
41263;SDS011;26998;48.714;9.414;2022-12-07T00:08:47;14.65;;;9.32;;
41263;SDS011;26998;48.714;9.414;2022-12-07T00:11:15;13.13;;;8.93;;
41263;SDS011;26998;48.714;9.414;2022-12-07T00:13:45;15.05;;;8.75;;
41263;SDS011;26998;48.714;9.414;2022-12-07T00:16:14;15.07;;;8.80;;
41263;SDS011;26998;48.714;9.414;2022-12-07T00:18:44;11.73;;;8.65;;
41263;SDS011;26998;48.714;9.414;2022-12-07T00:21:12;11.98;;;9.13;;
41263;SDS011;26998;48.714;9.414;2022-12-07T00:23:43;16.35;;;9.85;;
41263;SDS011;26998;48.714;9.414;2022-12-07T00:26:14;11.00;;;8.57;;
41263;SDS011;26998;48.714;9.414;2022-12-07T00:28:46;16.27;;;9.23;;
41263;SDS011;26998;48.714;9.414;2022-12-07T00:31:15;14.15;;;10.02;;
41263;SDS011;26998;48.714;9.414;2022-12-07T00:33:43;14.77;;;8.82;;
41263;SDS011;26998;48.714;9.414;2022-12-07T00:36:11;12.68;;;9.15;;
41263;SDS011;26998;48.714;9.414;2022-12-07T00:38:40;11.57;;;8.60;;
41263;SDS011;26998;48.714;9.414;2022-12-07T00:41:08;12.52;;;8.25;;
41263;SDS011;26998;48.714;9.414;2022-12-07T00:43:37;9.95;;;6.82;;
41263;SDS011;26998;48.714;9.414;2022-12-07T00:46:04;12.95;;;8.80;;
41263;SDS011;26998;48.714;9.414;2022-12-07T00:48:31;12.77;;;8.25;;
41263;SDS011;26998;48.714;9.414;2022-12-07T00:50:58;11.85;;;8.38;;
41263;SDS011;26998;48.714;9.414;2022-12-07T00:53:26;13.02;;;8.57;;
41263;SDS011;26998;48.714;9.414;2022-12-07T00:55:53;14.13;;;8.75;;
41263;SDS011;26998;48.714;9.414;2022-12-07T00:58:20;13.15;;;8.60;;
41263;SDS011;26998;48.714;9.414;2022-12-07T01:00:47;18.52;;;9.50;;
41263;SDS011;26998;48.714;9.414;2022-12-07T01:03:14;16.80;;;9.85;;
41263;SDS011;26998;48.714;9.414;2022-12-07T01:05:51;15.20;;;9.93;;
41263;SDS011;26998;48.714;9.414;2022-12-07T01:08:19;15.27;;;9.90;;
41263;SDS011;26998;48.714;9.414;2022-12-07T01:10:46;16.63;;;10.43;;
41263;SDS011;26998;48.714;9.414;2022-12-07T01:13:13;17.83;;;10.15;;
41263;SDS011;26998;48.714;9.414;2022-12-07T01:15:43;15.32;;;10.10;;
41263;SDS011;26998;48.714;9.414;2022-12-07T01:18:10;13.23;;;9.10;;
41263;SDS011;26998;48.714;9.414;2022-12-07T01:20:37;16.50;;;10.02;;
41263;SDS011;26998;48.714;9.414;2022-12-07T01:23:03;14.40;;;8.98;;
41263;SDS011;26998;48.714;9.414;2022-12-07T01:25:30;12.77;;;9.00;;
41263;SDS011;26998;48.714;9.414;2022-12-07T01:27:57;14.13;;;9.63;;
41263;SDS011;26998;48.714;9.414;2022-12-07T01:30:23;15.50;;;10.43;;
41263;SDS011;26998;48.714;9.414;2022-12-07T01:32:49;16.25;;;9.95;;
41263;SDS011;26998;48.714;9.414;2022-12-07T01:35:16;15.85;;;9.80;;
41263;SDS011;26998;48.714;9.414;2022-12-07T01:37:42;15.68;;;10.13;;
41263;SDS011;26998;48.714;9.414;2022-12-07T01:40:09;15.88;;;9.95;;
41263;SDS011;26998;48.714;9.414;2022-12-07T01:42:36;15.53;;;9.80;;
41263;SDS011;26998;48.714;9.414;2022-12-07T01:47:46;16.43;;;10.47;;
41263;SDS011;26998;48.714;9.414;2022-12-07T01:50:17;14.70;;;9.70;;
41263;SDS011;26998;48.714;9.414;2022-12-07T01:52:44;17.77;;;10.80;;
41263;SDS011;26998;48.714;9.414;2022-12-07T01:55:14;15.23;;;10.60;;
41263;SDS011;26998;48.714;9.414;2022-12-07T01:57:42;18.30;;;10.93;;
41263;SDS011;26998;48.714;9.414;2022-12-07T02:00:11;17.48;;;11.00;;
41263;SDS011;26998;48.714;9.414;2022-12-07T02:02:43;13.70;;;10.65;;
41263;SDS011;26998;48.714;9.414;2022-12-07T02:05:14;14.90;;;10.52;;
41263;SDS011;26998;48.714;9.414;2022-12-07T02:07:42;12.45;;;10.13;;
41263;SDS011;26998;48.714;9.414;2022-12-07T02:10:15;16.10;;;10.73;;
41263;SDS011;26998;48.714;9.414;2022-12-07T02:15:22;18.30;;;11.57;;
41263;SDS011;26998;48.714;9.414;2022-12-07T02:20:49;24.20;;;12.23;;
41263;SDS011;26998;48.714;9.414;2022-12-07T02:28:36;20.37;;;12.47;;
41263;SDS011;26998;48.714;9.414;2022-12-07T02:31:09;20.52;;;12.15;;
41263;SDS011;26998;48.714;9.414;2022-12-07T02:33:41;22.65;;;12.18;;
41263;SDS011;26998;48.714;9.414;2022-12-07T02:39:01;22.45;;;13.20;;
41263;SDS011;26998;48.714;9.414;2022-12-07T02:41:35;22.10;;;13.65;;
41263;SDS011;26998;48.714;9.414;2022-12-07T02:44:07;21.57;;;12.90;;
41263;SDS011;26998;48.714;9.414;2022-12-07T02:46:42;20.13;;;11.73;;
41263;SDS011;26998;48.714;9.414;2022-12-07T02:49:11;20.15;;;11.70;;
41263;SDS011;26998;48.714;9.414;2022-12-07T02:51:39;17.17;;;11.48;;
41263;SDS011;26998;48.714;9.414;2022-12-07T02:54:12;18.20;;;11.20;;
41263;SDS011;26998;48.714;9.414;2022-12-07T02:56:45;17.63;;;11.00;;
41263;SDS011;26998;48.714;9.414;2022-12-07T03:16:18;17.15;;;10.88;;
41263;SDS011;26998;48.714;9.414;2022-12-07T03:18:52;16.70;;;10.70;;
41263;SDS011;26998;48.714;9.414;2022-12-07T03:21:32;13.80;;;9.65;;
41263;SDS011;26998;48.714;9.414;2022-12-07T03:24:04;16.25;;;9.90;;
41263;SDS011;26998;48.714;9.414;2022-12-07T03:26:37;15.77;;;10.73;;
41263;SDS011;26998;48.714;9.414;2022-12-07T03:29:09;19.02;;;11.70;;
41263;SDS011;26998;48.714;9.414;2022-12-07T03:31:42;18.55;;;12.23;;
41263;SDS011;26998;48.714;9.414;2022-12-07T03:34:15;16.70;;;11.70;;
41263;SDS011;26998;48.714;9.414;2022-12-07T03:36:52;18.38;;;11.32;;
41263;SDS011;26998;48.714;9.414;2022-12-07T03:39:30;17.60;;;10.55;;
41263;SDS011;26998;48.714;9.414;2022-12-07T03:42:02;16.30;;;10.70;;
41263;SDS011;26998;48.714;9.414;2022-12-07T03:44:32;18.60;;;11.47;;
41263;SDS011;26998;48.714;9.414;2022-12-07T03:50:11;18.85;;;11.52;;
41263;SDS011;26998;48.714;9.414;2022-12-07T03:53:19;15.10;;;9.68;;
41263;SDS011;26998;48.714;9.414;2022-12-07T03:55:49;19.70;;;11.57;;
41263;SDS011;26998;48.714;9.414;2022-12-07T03:58:19;17.55;;;11.32;;
41263;SDS011;26998;48.714;9.414;2022-12-07T04:00:48;18.90;;;11.70;;
41263;SDS011;26998;48.714;9.414;2022-12-07T04:03:16;19.40;;;11.43;;
41263;SDS011;26998;48.714;9.414;2022-12-07T04:05:42;21.10;;;11.50;;
41263;SDS011;26998;48.714;9.414;2022-12-07T04:08:09;15.93;;;10.93;;
41263;SDS011;26998;48.714;9.414;2022-12-07T04:10:36;17.73;;;10.48;;
41263;SDS011;26998;48.714;9.414;2022-12-07T04:13:02;20.88;;;11.65;;
41263;SDS011;26998;48.714;9.414;2022-12-07T04:15:29;18.80;;;10.80;;
41263;SDS011;26998;48.714;9.414;2022-12-07T04:17:55;18.90;;;11.57;;
41263;SDS011;26998;48.714;9.414;2022-12-07T04:20:22;16.55;;;10.90;;
41263;SDS011;26998;48.714;9.414;2022-12-07T04:22:48;18.77;;;11.18;;
41263;SDS011;26998;48.714;9.414;2022-12-07T04:25:14;16.00;;;11.27;;
41263;SDS011;26998;48.714;9.414;2022-12-07T04:27:41;19.42;;;11.43;;
41263;SDS011;26998;48.714;9.414;2022-12-07T04:30:07;18.42;;;11.55;;
41263;SDS011;26998;48.714;9.414;2022-12-07T04:32:34;17.73;;;12.23;;
41263;SDS011;26998;48.714;9.414;2022-12-07T04:35:01;17.85;;;12.02;;
41263;SDS011;26998;48.714;9.414;2022-12-07T04:37:27;23.37;;;13.50;;
41263;SDS011;26998;48.714;9.414;2022-12-07T04:39:54;18.38;;;11.45;;
41263;SDS011;26998;48.714;9.414;2022-12-07T04:42:20;17.23;;;11.82;;
41263;SDS011;26998;48.714;9.414;2022-12-07T04:44:47;19.10;;;11.90;;
41263;SDS011;26998;48.714;9.414;2022-12-07T04:47:13;19.75;;;11.93;;
41263;SDS011;26998;48.714;9.414;2022-12-07T04:49:40;22.85;;;13.88;;
41263;SDS011;26998;48.714;9.414;2022-12-07T04:52:06;21.33;;;12.23;;
41263;SDS011;26998;48.714;9.414;2022-12-07T04:54:33;21.10;;;11.63;;
41263;SDS011;26998;48.714;9.414;2022-12-07T04:56:59;18.57;;;12.07;;
41263;SDS011;26998;48.714;9.414;2022-12-07T04:59:26;18.53;;;11.77;;
41263;SDS011;26998;48.714;9.414;2022-12-07T05:01:52;20.15;;;11.85;;
41263;SDS011;26998;48.714;9.414;2022-12-07T05:04:19;25.57;;;13.03;;
41263;SDS011;26998;48.714;9.414;2022-12-07T05:06:45;21.60;;;11.70;;
41263;SDS011;26998;48.714;9.414;2022-12-07T05:09:12;19.03;;;12.30;;
41263;SDS011;26998;48.714;9.414;2022-12-07T05:11:38;17.67;;;11.33;;
41263;SDS011;26998;48.714;9.414;2022-12-07T05:14:11;26.93;;;14.23;;
41263;SDS011;26998;48.714;9.414;2022-12-07T05:16:48;23.47;;;13.77;;
41263;SDS011;26998;48.714;9.414;2022-12-07T05:19:16;21.77;;;12.87;;
41263;SDS011;26998;48.714;9.414;2022-12-07T05:21:44;31.53;;;15.30;;
41263;SDS011;26998;48.714;9.414;2022-12-07T05:24:12;24.53;;;13.53;;
41263;SDS011;26998;48.714;9.414;2022-12-07T05:26:40;22.87;;;12.80;;
41263;SDS011;26998;48.714;9.414;2022-12-07T05:29:06;21.47;;;12.53;;
41263;SDS011;26998;48.714;9.414;2022-12-07T05:31:33;24.03;;;14.23;;
41263;SDS011;26998;48.714;9.414;2022-12-07T05:34:00;25.73;;;14.80;;
41263;SDS011;26998;48.714;9.414;2022-12-07T05:36:27;26.50;;;14.00;;
41263;SDS011;26998;48.714;9.414;2022-12-07T05:38:53;26.57;;;14.60;;
41263;SDS011;26998;48.714;9.414;2022-12-07T05:41:20;24.13;;;13.23;;
41263;SDS011;26998;48.714;9.414;2022-12-07T05:43:46;25.67;;;14.30;;
41263;SDS011;26998;48.714;9.414;2022-12-07T05:46:12;23.53;;;14.50;;
41263;SDS011;26998;48.714;9.414;2022-12-07T05:48:39;21.60;;;13.00;;
41263;SDS011;26998;48.714;9.414;2022-12-07T05:51:05;25.40;;;14.83;;
41263;SDS011;26998;48.714;9.414;2022-12-07T05:53:32;24.30;;;14.50;;
41263;SDS011;26998;48.714;9.414;2022-12-07T05:55:58;24.40;;;14.80;;
41263;SDS011;26998;48.714;9.414;2022-12-07T05:58:25;23.87;;;15.17;;
41263;SDS011;26998;48.714;9.414;2022-12-07T06:00:53;26.65;;;15.88;;
41263;SDS011;26998;48.714;9.414;2022-12-07T06:03:21;20.73;;;13.00;;
41263;SDS011;26998;48.714;9.414;2022-12-07T06:05:47;22.20;;;13.47;;
41263;SDS011;26998;48.714;9.414;2022-12-07T06:08:14;25.03;;;13.17;;
41263;SDS011;26998;48.714;9.414;2022-12-07T06:10:41;21.57;;;13.13;;
41263;SDS011;26998;48.714;9.414;2022-12-07T06:13:08;26.60;;;14.83;;
41263;SDS011;26998;48.714;9.414;2022-12-07T06:15:35;23.33;;;13.17;;
41263;SDS011;26998;48.714;9.414;2022-12-07T06:18:02;28.83;;;15.80;;
41263;SDS011;26998;48.714;9.414;2022-12-07T06:20:29;27.13;;;15.37;;
41263;SDS011;26998;48.714;9.414;2022-12-07T06:22:55;23.38;;;13.38;;
41263;SDS011;26998;48.714;9.414;2022-12-07T06:25:21;23.77;;;13.35;;
41263;SDS011;26998;48.714;9.414;2022-12-07T06:27:48;25.10;;;13.67;;
41263;SDS011;26998;48.714;9.414;2022-12-07T06:30:14;24.30;;;13.77;;
41263;SDS011;26998;48.714;9.414;2022-12-07T06:32:41;22.63;;;14.15;;
41263;SDS011;26998;48.714;9.414;2022-12-07T06:35:07;24.43;;;13.17;;
41263;SDS011;26998;48.714;9.414;2022-12-07T06:37:34;26.15;;;14.25;;
41263;SDS011;26998;48.714;9.414;2022-12-07T06:40:00;23.45;;;13.35;;
41263;SDS011;26998;48.714;9.414;2022-12-07T06:42:27;21.80;;;14.55;;
41263;SDS011;26998;48.714;9.414;2022-12-07T06:44:54;23.30;;;13.53;;
41263;SDS011;26998;48.714;9.414;2022-12-07T06:47:20;20.98;;;12.60;;
41263;SDS011;26998;48.714;9.414;2022-12-07T06:50:06;22.23;;;12.87;;
41263;SDS011;26998;48.714;9.414;2022-12-07T06:52:33;21.88;;;13.85;;
41263;SDS011;26998;48.714;9.414;2022-12-07T06:55:00;23.27;;;12.73;;
41263;SDS011;26998;48.714;9.414;2022-12-07T06:57:26;25.42;;;13.80;;
41263;SDS011;26998;48.714;9.414;2022-12-07T06:59:53;21.00;;;13.63;;
41263;SDS011;26998;48.714;9.414;2022-12-07T07:02:19;19.70;;;12.60;;
41263;SDS011;26998;48.714;9.414;2022-12-07T07:04:46;17.98;;;11.50;;
41263;SDS011;26998;48.714;9.414;2022-12-07T07:07:12;23.58;;;13.13;;
41263;SDS011;26998;48.714;9.414;2022-12-07T07:09:39;19.30;;;12.65;;
41263;SDS011;26998;48.714;9.414;2022-12-07T07:12:05;21.15;;;13.07;;
41263;SDS011;26998;48.714;9.414;2022-12-07T07:14:32;25.02;;;13.38;;
41263;SDS011;26998;48.714;9.414;2022-12-07T07:16:58;26.57;;;15.37;;
41263;SDS011;26998;48.714;9.414;2022-12-07T07:19:24;23.10;;;12.65;;
41263;SDS011;26998;48.714;9.414;2022-12-07T07:21:51;23.60;;;13.68;;
41263;SDS011;26998;48.714;9.414;2022-12-07T07:24:18;20.07;;;12.50;;
41263;SDS011;26998;48.714;9.414;2022-12-07T07:26:44;22.63;;;13.60;;
41263;SDS011;26998;48.714;9.414;2022-12-07T07:29:11;24.63;;;14.37;;
41263;SDS011;26998;48.714;9.414;2022-12-07T07:31:37;22.87;;;11.90;;
41263;SDS011;26998;48.714;9.414;2022-12-07T07:34:04;18.90;;;12.10;;
41263;SDS011;26998;48.714;9.414;2022-12-07T07:36:30;18.65;;;11.65;;
41263;SDS011;26998;48.714;9.414;2022-12-07T07:38:57;17.40;;;11.20;;
41263;SDS011;26998;48.714;9.414;2022-12-07T07:41:23;17.67;;;11.68;;
41263;SDS011;26998;48.714;9.414;2022-12-07T07:43:49;14.53;;;9.80;;
41263;SDS011;26998;48.714;9.414;2022-12-07T07:46:16;19.30;;;11.73;;
41263;SDS011;26998;48.714;9.414;2022-12-07T07:48:43;19.70;;;11.70;;
41263;SDS011;26998;48.714;9.414;2022-12-07T07:51:09;16.13;;;10.57;;
41263;SDS011;26998;48.714;9.414;2022-12-07T07:53:36;13.55;;;10.10;;
41263;SDS011;26998;48.714;9.414;2022-12-07T07:56:02;16.90;;;11.48;;
41263;SDS011;26998;48.714;9.414;2022-12-07T07:58:30;18.98;;;10.85;;
41263;SDS011;26998;48.714;9.414;2022-12-07T08:01:02;17.65;;;11.20;;
41263;SDS011;26998;48.714;9.414;2022-12-07T08:03:30;16.77;;;10.73;;
41263;SDS011;26998;48.714;9.414;2022-12-07T08:05:56;18.02;;;11.25;;
41263;SDS011;26998;48.714;9.414;2022-12-07T08:08:23;16.40;;;10.68;;
41263;SDS011;26998;48.714;9.414;2022-12-07T08:10:49;17.63;;;10.60;;
41263;SDS011;26998;48.714;9.414;2022-12-07T08:13:16;20.05;;;11.60;;
41263;SDS011;26998;48.714;9.414;2022-12-07T08:15:43;17.42;;;11.45;;
41263;SDS011;26998;48.714;9.414;2022-12-07T08:18:12;17.33;;;11.37;;
41263;SDS011;26998;48.714;9.414;2022-12-07T08:20:41;17.98;;;11.50;;
41263;SDS011;26998;48.714;9.414;2022-12-07T08:23:08;20.92;;;11.32;;
41263;SDS011;26998;48.714;9.414;2022-12-07T08:25:35;25.02;;;13.25;;
41263;SDS011;26998;48.714;9.414;2022-12-07T08:28:02;21.90;;;12.52;;
41263;SDS011;26998;48.714;9.414;2022-12-07T08:30:29;20.55;;;11.88;;
41263;SDS011;26998;48.714;9.414;2022-12-07T08:32:56;19.15;;;12.07;;
41263;SDS011;26998;48.714;9.414;2022-12-07T08:35:23;23.77;;;12.93;;
41263;SDS011;26998;48.714;9.414;2022-12-07T08:37:50;19.50;;;12.18;;
41263;SDS011;26998;48.714;9.414;2022-12-07T08:40:16;16.83;;;11.15;;
41263;SDS011;26998;48.714;9.414;2022-12-07T08:42:43;19.80;;;11.40;;
41263;SDS011;26998;48.714;9.414;2022-12-07T08:45:12;14.75;;;9.77;;
41263;SDS011;26998;48.714;9.414;2022-12-07T08:47:41;14.63;;;10.13;;
41263;SDS011;26998;48.714;9.414;2022-12-07T08:50:12;13.68;;;9.30;;
41263;SDS011;26998;48.714;9.414;2022-12-07T08:52:40;14.60;;;9.32;;
41263;SDS011;26998;48.714;9.414;2022-12-07T08:55:09;15.75;;;10.07;;
41263;SDS011;26998;48.714;9.414;2022-12-07T08:57:36;14.50;;;9.38;;
41263;SDS011;26998;48.714;9.414;2022-12-07T09:00:05;13.93;;;9.88;;
41263;SDS011;26998;48.714;9.414;2022-12-07T09:02:32;15.63;;;10.23;;
41263;SDS011;26998;48.714;9.414;2022-12-07T09:04:59;13.70;;;9.45;;
41263;SDS011;26998;48.714;9.414;2022-12-07T09:07:25;14.88;;;9.82;;
41263;SDS011;26998;48.714;9.414;2022-12-07T09:09:53;17.30;;;10.40;;
41263;SDS011;26998;48.714;9.414;2022-12-07T09:12:19;16.65;;;11.02;;
41263;SDS011;26998;48.714;9.414;2022-12-07T09:14:46;16.42;;;9.82;;
41263;SDS011;26998;48.714;9.414;2022-12-07T09:17:12;17.92;;;10.80;;
41263;SDS011;26998;48.714;9.414;2022-12-07T09:19:39;15.75;;;10.25;;
41263;SDS011;26998;48.714;9.414;2022-12-07T09:22:05;14.85;;;9.45;;
41263;SDS011;26998;48.714;9.414;2022-12-07T09:24:32;12.32;;;8.13;;
41263;SDS011;26998;48.714;9.414;2022-12-07T09:26:58;14.48;;;9.43;;
41263;SDS011;26998;48.714;9.414;2022-12-07T09:29:25;13.00;;;9.25;;
41263;SDS011;26998;48.714;9.414;2022-12-07T09:31:52;14.23;;;9.57;;
41263;SDS011;26998;48.714;9.414;2022-12-07T09:34:18;14.38;;;8.93;;
41263;SDS011;26998;48.714;9.414;2022-12-07T09:36:46;12.82;;;9.05;;
41263;SDS011;26998;48.714;9.414;2022-12-07T09:39:13;14.13;;;9.18;;
41263;SDS011;26998;48.714;9.414;2022-12-07T09:41:40;15.30;;;9.75;;
41263;SDS011;26998;48.714;9.414;2022-12-07T09:44:18;15.82;;;9.65;;
41263;SDS011;26998;48.714;9.414;2022-12-07T09:46:49;14.48;;;9.63;;
41263;SDS011;26998;48.714;9.414;2022-12-07T09:49:20;13.23;;;8.40;;
41263;SDS011;26998;48.714;9.414;2022-12-07T09:51:58;14.38;;;8.57;;
41263;SDS011;26998;48.714;9.414;2022-12-07T09:54:27;13.38;;;8.77;;
41263;SDS011;26998;48.714;9.414;2022-12-07T09:56:55;15.85;;;8.90;;
41263;SDS011;26998;48.714;9.414;2022-12-07T09:59:21;11.65;;;8.02;;
41263;SDS011;26998;48.714;9.414;2022-12-07T10:01:48;12.38;;;8.00;;
41263;SDS011;26998;48.714;9.414;2022-12-07T10:04:17;16.00;;;8.38;;
41263;SDS011;26998;48.714;9.414;2022-12-07T10:06:46;12.82;;;7.93;;
41263;SDS011;26998;48.714;9.414;2022-12-07T10:09:15;13.65;;;8.52;;
41263;SDS011;26998;48.714;9.414;2022-12-07T10:12:02;13.38;;;8.45;;
41263;SDS011;26998;48.714;9.414;2022-12-07T10:14:32;14.38;;;8.05;;
41263;SDS011;26998;48.714;9.414;2022-12-07T10:20:17;12.98;;;7.40;;
41263;SDS011;26998;48.714;9.414;2022-12-07T10:22:53;11.10;;;7.35;;
41263;SDS011;26998;48.714;9.414;2022-12-07T10:25:22;10.80;;;7.28;;
41263;SDS011;26998;48.714;9.414;2022-12-07T10:27:57;12.15;;;7.50;;
41263;SDS011;26998;48.714;9.414;2022-12-07T10:30:26;15.20;;;8.05;;
41263;SDS011;26998;48.714;9.414;2022-12-07T10:32:52;14.15;;;8.38;;
41263;SDS011;26998;48.714;9.414;2022-12-07T10:35:29;11.57;;;7.80;;
41263;SDS011;26998;48.714;9.414;2022-12-07T10:37:57;17.08;;;7.65;;
41263;SDS011;26998;48.714;9.414;2022-12-07T10:40:27;12.48;;;7.80;;
41263;SDS011;26998;48.714;9.414;2022-12-07T10:45:32;11.40;;;7.07;;
41263;SDS011;26998;48.714;9.414;2022-12-07T10:54:15;15.18;;;8.20;;
41263;SDS011;26998;48.714;9.414;2022-12-07T10:56:46;11.25;;;6.97;;
41263;SDS011;26998;48.714;9.414;2022-12-07T10:59:21;11.00;;;7.18;;
41263;SDS011;26998;48.714;9.414;2022-12-07T11:01:55;9.32;;;6.95;;
41263;SDS011;26998;48.714;9.414;2022-12-07T11:04:39;20.15;;;8.18;;
41263;SDS011;26998;48.714;9.414;2022-12-07T11:07:23;14.48;;;7.43;;
41263;SDS011;26998;48.714;9.414;2022-12-07T11:10:07;9.68;;;6.32;;
41263;SDS011;26998;48.714;9.414;2022-12-07T11:18:42;10.82;;;7.05;;
41263;SDS011;26998;48.714;9.414;2022-12-07T11:21:20;14.75;;;7.95;;
41263;SDS011;26998;48.714;9.414;2022-12-07T11:23:56;9.98;;;7.05;;
41263;SDS011;26998;48.714;9.414;2022-12-07T11:31:50;9.63;;;6.13;;
41263;SDS011;26998;48.714;9.414;2022-12-07T11:36:52;10.07;;;7.32;;
41263;SDS011;26998;48.714;9.414;2022-12-07T11:39:28;8.70;;;6.32;;
41263;SDS011;26998;48.714;9.414;2022-12-07T11:42:44;8.73;;;6.32;;
41263;SDS011;26998;48.714;9.414;2022-12-07T11:47:41;11.00;;;7.10;;
41263;SDS011;26998;48.714;9.414;2022-12-07T11:58:35;9.32;;;6.07;;
41263;SDS011;26998;48.714;9.414;2022-12-07T12:01:04;9.07;;;5.72;;
41263;SDS011;26998;48.714;9.414;2022-12-07T12:03:44;10.20;;;6.60;;
41263;SDS011;26998;48.714;9.414;2022-12-07T12:06:18;10.07;;;6.20;;
41263;SDS011;26998;48.714;9.414;2022-12-07T12:08:48;9.63;;;6.65;;
41263;SDS011;26998;48.714;9.414;2022-12-07T12:17:49;10.05;;;6.70;;
41263;SDS011;26998;48.714;9.414;2022-12-07T12:23:05;9.77;;;6.30;;
41263;SDS011;26998;48.714;9.414;2022-12-07T12:25:38;11.65;;;6.57;;
41263;SDS011;26998;48.714;9.414;2022-12-07T12:28:18;8.35;;;6.60;;
41263;SDS011;26998;48.714;9.414;2022-12-07T12:33:57;9.13;;;5.30;;
41263;SDS011;26998;48.714;9.414;2022-12-07T12:44:03;8.77;;;5.50;;
41263;SDS011;26998;48.714;9.414;2022-12-07T12:46:52;7.72;;;4.80;;
41263;SDS011;26998;48.714;9.414;2022-12-07T12:51:49;8.07;;;5.93;;
41263;SDS011;26998;48.714;9.414;2022-12-07T12:59:38;8.73;;;5.30;;
41263;SDS011;26998;48.714;9.414;2022-12-07T13:02:25;10.15;;;6.00;;
41263;SDS011;26998;48.714;9.414;2022-12-07T13:20:51;11.13;;;6.40;;
41263;SDS011;26998;48.714;9.414;2022-12-07T13:23:24;12.40;;;6.28;;
41263;SDS011;26998;48.714;9.414;2022-12-07T13:26:18;13.38;;;6.60;;
41263;SDS011;26998;48.714;9.414;2022-12-07T13:28:46;16.05;;;6.68;;
41263;SDS011;26998;48.714;9.414;2022-12-07T13:33:58;9.50;;;5.50;;
41263;SDS011;26998;48.714;9.414;2022-12-07T13:36:29;11.63;;;6.45;;
41263;SDS011;26998;48.714;9.414;2022-12-07T13:39:00;9.63;;;5.82;;
41263;SDS011;26998;48.714;9.414;2022-12-07T13:41:42;8.77;;;5.20;;
41263;SDS011;26998;48.714;9.414;2022-12-07T13:44:10;7.35;;;5.25;;
41263;SDS011;26998;48.714;9.414;2022-12-07T13:49:27;12.68;;;6.45;;
41263;SDS011;26998;48.714;9.414;2022-12-07T13:52:08;8.32;;;6.13;;
41263;SDS011;26998;48.714;9.414;2022-12-07T13:54:48;8.93;;;6.60;;
41263;SDS011;26998;48.714;9.414;2022-12-07T13:57:21;10.20;;;6.45;;
41263;SDS011;26998;48.714;9.414;2022-12-07T13:59:50;10.93;;;6.10;;
41263;SDS011;26998;48.714;9.414;2022-12-07T14:02:21;12.05;;;6.30;;
41263;SDS011;26998;48.714;9.414;2022-12-07T14:04:49;7.80;;;5.97;;
41263;SDS011;26998;48.714;9.414;2022-12-07T14:07:21;12.00;;;6.88;;
41263;SDS011;26998;48.714;9.414;2022-12-07T14:09:59;10.13;;;6.07;;
41263;SDS011;26998;48.714;9.414;2022-12-07T14:12:28;8.10;;;6.10;;
41263;SDS011;26998;48.714;9.414;2022-12-07T14:14:55;10.15;;;5.85;;
41263;SDS011;26998;48.714;9.414;2022-12-07T14:17:24;9.93;;;6.28;;
41263;SDS011;26998;48.714;9.414;2022-12-07T14:19:53;8.65;;;6.30;;
41263;SDS011;26998;48.714;9.414;2022-12-07T14:22:35;9.63;;;6.15;;
41263;SDS011;26998;48.714;9.414;2022-12-07T14:27:31;14.05;;;7.50;;
41263;SDS011;26998;48.714;9.414;2022-12-07T14:30:00;12.50;;;6.90;;
41263;SDS011;26998;48.714;9.414;2022-12-07T14:32:29;10.23;;;6.35;;
41263;SDS011;26998;48.714;9.414;2022-12-07T14:35:17;14.80;;;7.10;;
41263;SDS011;26998;48.714;9.414;2022-12-07T14:37:45;9.50;;;6.25;;
41263;SDS011;26998;48.714;9.414;2022-12-07T14:40:18;13.35;;;7.13;;
41263;SDS011;26998;48.714;9.414;2022-12-07T14:42:47;9.65;;;6.38;;
41263;SDS011;26998;48.714;9.414;2022-12-07T14:45:18;11.50;;;7.28;;
41263;SDS011;26998;48.714;9.414;2022-12-07T14:47:47;9.48;;;6.55;;
41263;SDS011;26998;48.714;9.414;2022-12-07T14:50:35;14.18;;;6.18;;
41263;SDS011;26998;48.714;9.414;2022-12-07T14:53:11;12.10;;;7.32;;
41263;SDS011;26998;48.714;9.414;2022-12-07T14:55:48;9.52;;;5.63;;
41263;SDS011;26998;48.714;9.414;2022-12-07T14:58:15;12.65;;;7.07;;
41263;SDS011;26998;48.714;9.414;2022-12-07T15:00:43;11.55;;;6.30;;
41263;SDS011;26998;48.714;9.414;2022-12-07T15:03:10;17.33;;;7.20;;
41263;SDS011;26998;48.714;9.414;2022-12-07T15:05:37;10.07;;;6.95;;
41263;SDS011;26998;48.714;9.414;2022-12-07T15:08:04;12.00;;;6.85;;
41263;SDS011;26998;48.714;9.414;2022-12-07T15:10:32;10.07;;;6.10;;
41263;SDS011;26998;48.714;9.414;2022-12-07T15:13:01;12.02;;;6.85;;
41263;SDS011;26998;48.714;9.414;2022-12-07T15:15:28;10.90;;;7.07;;
41263;SDS011;26998;48.714;9.414;2022-12-07T15:17:57;8.80;;;5.90;;
41263;SDS011;26998;48.714;9.414;2022-12-07T15:20:23;12.55;;;7.07;;
41263;SDS011;26998;48.714;9.414;2022-12-07T15:22:50;11.65;;;6.63;;
41263;SDS011;26998;48.714;9.414;2022-12-07T15:25:16;12.32;;;7.25;;
41263;SDS011;26998;48.714;9.414;2022-12-07T15:27:43;11.45;;;6.97;;
41263;SDS011;26998;48.714;9.414;2022-12-07T15:30:09;8.20;;;6.63;;
41263;SDS011;26998;48.714;9.414;2022-12-07T15:32:36;11.45;;;7.05;;
41263;SDS011;26998;48.714;9.414;2022-12-07T15:35:03;11.00;;;6.95;;
41263;SDS011;26998;48.714;9.414;2022-12-07T15:37:30;10.65;;;7.28;;
41263;SDS011;26998;48.714;9.414;2022-12-07T15:39:57;14.80;;;7.25;;
41263;SDS011;26998;48.714;9.414;2022-12-07T15:42:30;11.32;;;6.95;;
41263;SDS011;26998;48.714;9.414;2022-12-07T15:44:57;9.10;;;7.32;;
41263;SDS011;26998;48.714;9.414;2022-12-07T15:47:24;10.48;;;7.05;;
41263;SDS011;26998;48.714;9.414;2022-12-07T15:49:50;13.07;;;7.55;;
41263;SDS011;26998;48.714;9.414;2022-12-07T15:52:16;10.57;;;7.60;;
41263;SDS011;26998;48.714;9.414;2022-12-07T15:54:43;10.75;;;7.30;;
41263;SDS011;26998;48.714;9.414;2022-12-07T15:57:10;12.10;;;6.95;;
41263;SDS011;26998;48.714;9.414;2022-12-07T15:59:36;15.10;;;8.82;;
41263;SDS011;26998;48.714;9.414;2022-12-07T16:02:02;12.75;;;7.50;;
41263;SDS011;26998;48.714;9.414;2022-12-07T16:04:29;10.27;;;6.32;;
41263;SDS011;26998;48.714;9.414;2022-12-07T16:06:56;9.93;;;6.57;;
41263;SDS011;26998;48.714;9.414;2022-12-07T16:09:23;11.45;;;6.75;;
41263;SDS011;26998;48.714;9.414;2022-12-07T16:11:50;13.48;;;7.30;;
41263;SDS011;26998;48.714;9.414;2022-12-07T16:14:16;12.02;;;7.18;;
41263;SDS011;26998;48.714;9.414;2022-12-07T16:16:42;13.10;;;6.40;;
41263;SDS011;26998;48.714;9.414;2022-12-07T16:19:09;9.93;;;6.53;;
41263;SDS011;26998;48.714;9.414;2022-12-07T16:21:36;11.85;;;6.68;;
41263;SDS011;26998;48.714;9.414;2022-12-07T16:24:03;15.93;;;8.50;;
41263;SDS011;26998;48.714;9.414;2022-12-07T16:26:29;16.77;;;8.52;;
41263;SDS011;26998;48.714;9.414;2022-12-07T16:28:57;12.57;;;7.50;;
41263;SDS011;26998;48.714;9.414;2022-12-07T16:31:24;16.83;;;7.75;;
41263;SDS011;26998;48.714;9.414;2022-12-07T16:33:53;11.60;;;7.20;;
41263;SDS011;26998;48.714;9.414;2022-12-07T16:36:21;14.90;;;8.00;;
41263;SDS011;26998;48.714;9.414;2022-12-07T16:39:08;12.53;;;7.00;;
41263;SDS011;26998;48.714;9.414;2022-12-07T16:41:36;13.90;;;7.53;;
41263;SDS011;26998;48.714;9.414;2022-12-07T16:44:03;14.35;;;7.80;;
41263;SDS011;26998;48.714;9.414;2022-12-07T16:46:31;11.43;;;7.15;;
41263;SDS011;26998;48.714;9.414;2022-12-07T16:48:59;15.18;;;8.20;;